Time;durP1;ratioP1;P1;durP2;ratioP2;P2;SDS_P1;SDS_P2;PMS_P1;PMS_P2;Temp;Humidity;BMP_temperature;BMP_pressure;BME280_temperature;BME280_humidity;BME280_pressure;Samples;Min_cycle;Max_cycle;Signal;HPM_P1;HPM_P2
2022/11/20 00:00:35;;;;;;;;;;;;;;;13.81;62.73;101057.28;1260742;23;626;-74
2022/11/20 00:01:25;;;;;;;;;;;;;;;13.81;62.88;101054.59;1261515;23;701;-74
2022/11/20 00:02:16;;;;;;;;;;;;;;;13.84;62.60;101058.88;1267982;23;617;-74
2022/11/20 00:03:06;;;;;;;;;;;;;;;13.84;62.45;101054.38;1265699;23;603;-73
2022/11/20 00:03:57;;;;;;;;;;;;;;;13.87;62.59;101054.13;1265168;23;1359;-74
2022/11/20 00:04:48;;;;;;;;;;;;;;;13.81;62.85;101053.75;1264503;23;547;-73
2022/11/20 00:05:38;;;;;;;;;;;;;;;13.81;62.78;101059.94;1265520;23;646;-74
2022/11/20 00:06:28;;;;;;;;;;;;;;;13.81;62.11;101053.75;1265387;23;665;-73
2022/11/20 00:07:19;;;;;;;;;;;;;;;13.78;62.64;101054.84;1265463;23;627;-74
2022/11/20 00:08:09;;;;;;;;;;;;;;;13.78;62.41;101054.00;1265664;23;677;-73
2022/11/20 00:09:01;;;;;;;;;;;;;;;13.77;62.33;101057.63;1265355;23;631;-74
2022/11/20 00:09:51;;;;;;;;;;;;;;;13.78;62.75;101059.34;1264808;23;569;-74
2022/11/20 00:10:41;;;;;;;;;;;;;;;13.76;62.77;101055.94;1260868;23;590;-74
2022/11/20 00:11:32;;;;;;;;;;;;;;;13.74;63.00;101052.50;1261629;23;633;-74
2022/11/20 00:12:22;;;;;;;;;;;;;;;13.72;62.80;101051.75;1267166;23;704;-73
2022/11/20 00:13:13;;;;;;;;;;;;;;;13.74;62.91;101057.88;1265376;23;635;-73
2022/11/20 00:14:03;;;;;;;;;;;;;;;13.72;63.26;101060.66;1260768;23;641;-73
2022/11/20 00:14:54;;;;;;;;;;;;;;;13.73;62.27;101061.50;1259888;23;661;-73
2022/11/20 00:15:44;;;;;;;;;;;;;;;13.70;62.74;101056.38;1266330;23;614;-73
2022/11/20 00:16:35;;;;;;;;;;;;;;;13.71;62.34;101061.63;1265392;23;633;-73
2022/11/20 00:17:25;;;;;;;;;;;;;;;13.70;62.67;101064.41;1265664;23;663;-73
2022/11/20 00:18:16;;;;;;;;;;;;;;;13.70;63.03;101061.72;1265224;23;803;-73
2022/11/20 00:19:06;;;;;;;;;;;;;;;13.67;62.42;101057.47;1265460;23;614;-73
2022/11/20 00:19:56;;;;;;;;;;;;;;;13.71;62.45;101052.72;1266269;23;739;-73
2022/11/20 00:20:47;;;;;;;;;;;;;;;13.70;62.63;101051.03;1267276;23;669;-73
2022/11/20 00:21:37;;;;;;;;;;;;;;;13.71;62.58;101048.22;1265381;23;662;-73
2022/11/20 00:22:28;;;;;;;;;;;;;;;13.67;62.94;101049.41;1265593;23;813;-73
2022/11/20 00:23:18;;;;;;;;;;;;;;;13.68;62.95;101047.59;1265661;23;777;-73
2022/11/20 00:24:10;;;;;;;;;;;;;;;13.70;62.31;101048.34;1265405;23;631;-73
2022/11/20 00:25:00;;;;;;;;;;;;;;;13.70;62.67;101048.34;1260833;23;637;-73
2022/11/20 00:25:51;;;;;;;;;;;;;;;13.74;62.23;101053.38;1259949;23;638;-73
2022/11/20 00:26:41;;;;;;;;;;;;;;;13.73;61.96;101045.44;1267189;23;680;-72
2022/11/20 00:27:32;;;;;;;;;;;;;;;13.73;62.05;101046.28;1267416;23;660;-72
2022/11/20 00:28:22;;;;;;;;;;;;;;;13.70;62.36;101051.03;1265952;23;720;-72
2022/11/20 00:29:12;;;;;;;;;;;;;;;13.67;62.17;101045.88;1265670;23;606;-72
2022/11/20 00:30:03;;;;;;;;;;;;;;;13.71;62.63;101055.41;1261198;23;652;-72
2022/11/20 00:30:53;;;;;;;;;;;;;;;13.68;62.21;101053.81;1257505;23;669;-72
2022/11/20 00:31:44;;;;;;;;;;;;;;;13.69;62.95;101058.19;1261026;23;633;-73
2022/11/20 00:32:34;;;;;;;;;;;;;;;13.67;62.27;101052.09;1267365;23;689;-72
2022/11/20 00:33:24;;;;;;;;;;;;;;;13.66;63.01;101052.22;1267451;23;689;-73
2022/11/20 00:34:15;;;;;;;;;;;;;;;13.65;62.26;101051.34;1265977;23;638;-73
2022/11/20 00:35:05;;;;;;;;;;;;;;;13.63;62.33;101045.25;1266045;23;669;-73
2022/11/20 00:35:56;;;;;;;;;;;;;;;13.66;62.14;101049.53;1265841;23;628;-74
2022/11/20 00:36:46;;;;;;;;;;;;;;;13.68;62.24;101052.94;1265936;23;669;-73
2022/11/20 00:37:37;;;;;;;;;;;;;;;13.66;62.27;101052.22;1266811;23;674;-73
2022/11/20 00:38:27;;;;;;;;;;;;;;;13.65;62.54;101042.47;1266011;23;603;-72
2022/11/20 00:39:17;;;;;;;;;;;;;;;13.64;62.74;101049.63;1261155;23;559;-72
2022/11/20 00:40:08;;;;;;;;;;;;;;;13.63;62.48;101049.75;1262111;23;677;-72
2022/11/20 00:40:58;;;;;;;;;;;;;;;13.61;62.16;101046.38;1267653;23;625;-73
2022/11/20 00:41:49;;;;;;;;;;;;;;;13.61;62.28;101051.72;1261119;23;677;-73
2022/11/20 00:42:40;;;;;;;;;;;;;;;13.59;62.33;101048.31;1262278;23;657;-73
2022/11/20 00:43:30;;;;;;;;;;;;;;;13.58;62.46;101051.94;1268437;23;641;-73
2022/11/20 00:44:21;;;;;;;;;;;;;;;13.60;62.34;101058.03;1265720;23;630;-73
2022/11/20 00:45:11;;;;;;;;;;;;;;;13.61;62.54;101054.41;1266037;23;646;-73
2022/11/20 00:46:02;;;;;;;;;;;;;;;13.59;62.03;101050.97;1265611;23;599;-73
2022/11/20 00:46:52;;;;;;;;;;;;;;;13.60;62.41;101050.00;1265827;23;657;-73
2022/11/20 00:47:42;;;;;;;;;;;;;;;13.55;62.79;101045.84;1267427;23;572;-73
2022/11/20 00:48:33;;;;;;;;;;;;;;;13.59;62.18;101042.94;1265774;23;1889;-73
2022/11/20 00:49:23;;;;;;;;;;;;;;;13.59;62.37;101046.47;1266020;23;686;-73
2022/11/20 00:50:14;;;;;;;;;;;;;;;13.61;62.69;101043.69;1265769;23;639;-73
2022/11/20 00:51:04;;;;;;;;;;;;;;;13.60;62.41;101042.84;1265944;23;673;-73
2022/11/20 00:51:54;;;;;;;;;;;;;;;13.59;62.24;101037.59;1265146;23;622;-73
2022/11/20 00:52:45;;;;;;;;;;;;;;;13.60;62.66;101041.97;1265849;23;622;-73
2022/11/20 00:53:35;;;;;;;;;;;;;;;13.60;61.85;101039.28;1266087;23;673;-72
2022/11/20 00:54:26;;;;;;;;;;;;;;;13.61;62.08;101038.34;1267468;23;634;-73
2022/11/20 00:55:16;;;;;;;;;;;;;;;13.54;62.64;101037.91;1265972;23;659;-73
2022/11/20 00:56:07;;;;;;;;;;;;;;;13.53;62.80;101034.38;1261278;23;658;-73
2022/11/20 00:56:57;;;;;;;;;;;;;;;13.57;62.54;101036.84;1261967;23;633;-73
2022/11/20 00:57:47;;;;;;;;;;;;;;;13.59;61.89;101037.59;1267533;23;608;-73
2022/11/20 00:58:38;;;;;;;;;;;;;;;13.60;62.26;101034.78;1265658;23;614;-73
2022/11/20 00:59:28;;;;;;;;;;;;;;;13.59;61.80;101038.44;1266005;23;650;-73
2022/11/20 01:00:19;;;;;;;;;;;;;;;13.54;62.47;101036.09;1267422;23;638;-72
2022/11/20 01:01:09;;;;;;;;;;;;;;;13.46;62.71;101033.13;1265978;23;650;-72
2022/11/20 01:02:00;;;;;;;;;;;;;;;13.50;62.42;101033.75;1265713;23;626;-72
2022/11/20 01:02:50;;;;;;;;;;;;;;;13.47;62.20;101029.47;1265820;23;611;-73
2022/11/20 01:03:40;;;;;;;;;;;;;;;13.50;62.48;101033.75;1266311;23;1125;-73
2022/11/20 01:04:31;;;;;;;;;;;;;;;13.50;62.89;101029.25;1265747;23;646;-72
2022/11/20 01:05:21;;;;;;;;;;;;;;;13.53;62.81;101039.75;1267512;23;681;-73
2022/11/20 01:06:12;;;;;;;;;;;;;;;13.55;62.75;101031.59;1267332;23;693;-73
2022/11/20 01:07:02;;;;;;;;;;;;;;;13.52;61.89;101029.16;1265908;23;661;-72
2022/11/20 01:07:53;;;;;;;;;;;;;;;13.51;62.01;101033.66;1267424;23;614;-72
2022/11/20 01:08:43;;;;;;;;;;;;;;;13.50;62.45;101028.41;1265865;23;1939;-72
2022/11/20 01:09:34;;;;;;;;;;;;;;;13.46;62.39;101032.25;1260966;23;896;-73
2022/11/20 01:10:24;;;;;;;;;;;;;;;13.45;62.39;101031.41;1261967;23;605;-72
2022/11/20 01:11:14;;;;;;;;;;;;;;;13.45;62.72;101028.72;1267556;23;646;-73
2022/11/20 01:12:05;;;;;;;;;;;;;;;13.47;62.08;101033.97;1265611;23;709;-72
2022/11/20 01:14:04;;;;;;;;;;;;;;;13.46;62.31;101025.09;1268335;23;669;-72
2022/11/20 01:14:55;;;;;;;;;;;;;;;13.45;62.77;101028.72;1265803;23;596;-73
2022/11/20 01:15:45;;;;;;;;;;;;;;;13.47;62.46;101024.13;1265825;23;654;-72
2022/11/20 01:16:36;;;;;;;;;;;;;;;13.48;61.67;101025.84;1265626;23;634;-73
2022/11/20 01:17:26;;;;;;;;;;;;;;;13.45;62.67;101025.19;1265775;23;539;-73
2022/11/20 01:18:16;;;;;;;;;;;;;;;13.43;62.13;101022.66;1265978;23;670;-73
2022/11/20 01:19:07;;;;;;;;;;;;;;;13.48;62.11;101027.66;1265700;23;634;-73
2022/11/20 01:19:57;;;;;;;;;;;;;;;13.47;61.67;101028.63;1265858;23;654;-73
2022/11/20 01:20:48;;;;;;;;;;;;;;;13.42;61.94;101029.00;1265060;23;645;-73
2022/11/20 01:21:38;;;;;;;;;;;;;;;13.40;62.36;101024.72;1265758;23;649;-73
2022/11/20 01:22:28;;;;;;;;;;;;;;;13.43;62.55;101028.03;1266556;23;713;-73
2022/11/20 01:23:19;;;;;;;;;;;;;;;13.42;61.73;101026.31;1261111;23;646;-73
2022/11/20 01:24:09;;;;;;;;;;;;;;;13.40;62.29;101028.25;1261864;23;610;-74
2022/11/20 01:25:00;;;;;;;;;;;;;;;13.44;62.16;101024.34;1267506;23;594;-73
2022/11/20 01:25:50;;;;;;;;;;;;;;;13.44;61.76;101024.34;1265913;23;650;-73
2022/11/20 01:26:41;;;;;;;;;;;;;;;13.41;62.47;101029.94;1266522;23;697;-73
2022/11/20 01:27:31;;;;;;;;;;;;;;;13.46;62.50;101025.09;1265673;23;658;-73
2022/11/20 01:28:21;;;;;;;;;;;;;;;13.43;62.14;101022.66;1266523;23;673;-73
2022/11/20 01:29:12;;;;;;;;;;;;;;;13.42;62.32;101029.00;1267328;23;646;-73
2022/11/20 01:30:02;;;;;;;;;;;;;;;13.41;61.83;101021.06;1260966;23;642;-73
2022/11/20 01:30:53;;;;;;;;;;;;;;;13.39;62.73;101023.00;1261842;23;622;-73
2022/11/20 01:31:43;;;;;;;;;;;;;;;13.37;62.43;101027.59;1267504;23;712;-73
2022/11/20 01:32:34;;;;;;;;;;;;;;;13.41;62.73;101029.94;1267340;23;611;-73
2022/11/20 01:33:24;;;;;;;;;;;;;;;13.41;62.09;101024.59;1265811;23;646;-73
2022/11/20 01:34:14;;;;;;;;;;;;;;;13.45;62.20;101019.84;1265896;23;666;-74
2022/11/20 01:35:05;;;;;;;;;;;;;;;13.40;62.50;101028.25;1265568;23;626;-74
2022/11/20 01:35:55;;;;;;;;;;;;;;;13.41;62.98;101027.28;1265864;23;623;-74
2022/11/20 01:36:46;;;;;;;;;;;;;;;13.40;62.79;101025.56;1267455;23;649;-74
2022/11/20 01:37:36;;;;;;;;;;;;;;;13.43;62.75;101021.81;1265793;23;603;-74
2022/11/20 01:38:27;;;;;;;;;;;;;;;13.37;62.65;101022.25;1265181;23;658;-74
2022/11/20 01:39:17;;;;;;;;;;;;;;;13.37;62.61;101023.09;1265642;23;567;-74
2022/11/20 01:40:07;;;;;;;;;;;;;;;13.38;62.80;101018.63;1265792;23;639;-74
2022/11/20 01:40:58;;;;;;;;;;;;;;;13.38;62.00;101019.47;1265595;23;615;-74
2022/11/20 01:44:07;;;;;;;;;;;;;;;13.40;62.67;101016.69;1268457;23;653;-74
2022/11/20 01:44:57;;;;;;;;;;;;;;;13.39;62.53;101018.50;1265702;23;663;-74
2022/11/20 01:45:48;;;;;;;;;;;;;;;13.38;62.49;101019.47;1267350;23;693;-73
2022/11/20 01:46:38;;;;;;;;;;;;;;;13.38;62.03;101018.63;1265687;23;653;-72
2022/11/20 01:47:28;;;;;;;;;;;;;;;13.36;62.57;101016.03;1265973;23;630;-72
2022/11/20 01:48:19;;;;;;;;;;;;;;;13.35;62.02;101018.84;1265659;23;619;-72
2022/11/20 01:49:09;;;;;;;;;;;;;;;13.32;62.01;101011.88;1267417;23;578;-73
2022/11/20 01:50:00;;;;;;;;;;;;;;;13.32;62.45;101011.88;1265057;23;568;-73
2022/11/20 01:50:50;;;;;;;;;;;;;;;13.32;62.66;101017.22;1265754;23;662;-72
2022/11/20 01:51:40;;;;;;;;;;;;;;;13.32;62.38;101014.56;1265971;23;571;-73
2022/11/20 01:52:31;;;;;;;;;;;;;;;13.36;61.69;101015.19;1265681;23;622;-73
2022/11/20 01:53:21;;;;;;;;;;;;;;;13.35;61.47;101008.13;1265894;23;622;-73
2022/11/20 01:54:12;;;;;;;;;;;;;;;13.34;62.29;101015.28;1265565;23;616;-73
2022/11/20 01:55:02;;;;;;;;;;;;;;;13.30;61.98;101005.78;1265713;23;697;-72
2022/11/20 01:55:53;;;;;;;;;;;;;;;13.28;61.88;101004.19;1265502;23;641;-72
2022/11/20 01:56:43;;;;;;;;;;;;;;;13.29;62.16;101006.75;1265788;23;630;-73
2022/11/20 01:57:34;;;;;;;;;;;;;;;13.34;61.72;101004.59;1266002;23;681;-73
2022/11/20 01:58:24;;;;;;;;;;;;;;;13.31;61.53;101007.50;1265767;23;670;-72
2022/11/20 01:59:14;;;;;;;;;;;;;;;13.34;61.51;101006.41;1265834;23;610;-73
2022/11/20 02:00:05;;;;;;;;;;;;;;;13.34;62.27;101001.06;1265542;23;610;-73
2022/11/20 02:00:55;;;;;;;;;;;;;;;13.31;61.76;101006.63;1267274;23;701;-72
2022/11/20 02:01:46;;;;;;;;;;;;;;;13.29;61.88;101003.22;1265436;23;658;-73
2022/11/20 02:02:36;;;;;;;;;;;;;;;13.31;62.43;101001.28;1265725;23;626;-73
2022/11/20 02:03:27;;;;;;;;;;;;;;;13.38;62.03;101006.09;1267348;23;633;-73
2022/11/20 02:04:17;;;;;;;;;;;;;;;13.31;62.18;101012.84;1265097;23;609;-73
2022/11/20 02:05:07;;;;;;;;;;;;;;;13.31;62.59;101002.13;1265797;23;669;-73
2022/11/20 02:05:58;;;;;;;;;;;;;;;13.34;62.12;101009.94;1265544;23;618;-73
2022/11/20 02:06:48;;;;;;;;;;;;;;;13.30;61.98;101008.47;1265941;23;724;-73
2022/11/20 02:07:39;;;;;;;;;;;;;;;13.29;62.12;101009.41;1265544;23;775;-73
2022/11/20 02:08:29;;;;;;;;;;;;;;;13.28;62.28;101006.84;1265595;23;626;-74
2022/11/20 02:09:19;;;;;;;;;;;;;;;13.29;62.09;101004.06;1265952;23;693;-73
2022/11/20 02:10:10;;;;;;;;;;;;;;;13.28;62.23;101010.38;1267374;23;622;-73
2022/11/20 02:11:00;;;;;;;;;;;;;;;13.32;61.87;101006.53;1260975;23;685;-73
2022/11/20 02:11:51;;;;;;;;;;;;;;;13.28;62.90;101006.84;1260024;23;697;-73
2022/11/20 02:13:50;;;;;;;;;;;;;;;13.28;62.67;101006.84;1268152;23;665;-75
2022/11/20 02:14:41;;;;;;;;;;;;;;;13.28;62.62;101010.38;1265467;23;634;-75
2022/11/20 02:15:31;;;;;;;;;;;;;;;13.25;62.87;101007.97;1265802;23;708;-74
2022/11/20 02:16:22;;;;;;;;;;;;;;;13.25;62.76;101007.09;1267305;23;653;-74
2022/11/20 02:17:12;;;;;;;;;;;;;;;13.26;62.30;101006.97;1266667;23;634;-74
2022/11/20 02:18:03;;;;;;;;;;;;;;;13.26;62.07;101001.63;1267218;23;751;-74
2022/11/20 02:18:53;;;;;;;;;;;;;;;13.27;62.22;100997.97;1265060;23;622;-74
2022/11/20 02:19:44;;;;;;;;;;;;;;;13.30;62.08;101000.44;1265893;23;638;-74
2022/11/20 02:20:34;;;;;;;;;;;;;;;13.30;62.70;100992.41;1265505;23;573;-74
2022/11/20 02:21:25;;;;;;;;;;;;;;;13.29;62.01;100995.19;1265871;23;646;-73
2022/11/20 02:22:15;;;;;;;;;;;;;;;13.23;62.41;100987.63;1264974;23;643;-73
2022/11/20 02:23:06;;;;;;;;;;;;;;;13.25;62.84;100986.56;1265445;23;532;-72
2022/11/20 02:23:56;;;;;;;;;;;;;;;13.24;62.19;100990.19;1265776;23;665;-73
2022/11/20 02:24:47;;;;;;;;;;;;;;;13.23;62.63;100991.16;1260821;23;550;-73
2022/11/20 02:25:37;;;;;;;;;;;;;;;13.23;62.71;100988.47;1257524;23;672;-73
2022/11/20 02:26:27;;;;;;;;;;;;;;;13.23;62.59;100985.81;1260718;23;633;-73
2022/11/20 02:27:18;;;;;;;;;;;;;;;13.27;62.31;100991.75;1265682;23;658;-73
2022/11/20 02:28:08;;;;;;;;;;;;;;;13.27;61.93;100991.75;1260836;23;641;-73
2022/11/20 02:28:59;;;;;;;;;;;;;;;13.24;62.16;100989.34;1262649;23;1892;-73
2022/11/20 02:29:49;;;;;;;;;;;;;;;13.19;62.46;100992.34;1268272;23;613;-73
2022/11/20 02:30:40;;;;;;;;;;;;;;;13.19;62.64;100989.66;1267335;23;720;-73
2022/11/20 02:31:30;;;;;;;;;;;;;;;13.18;61.78;100985.28;1265593;23;576;-73
2022/11/20 02:32:20;;;;;;;;;;;;;;;13.17;61.88;100987.09;1265860;23;638;-73
2022/11/20 02:33:11;;;;;;;;;;;;;;;13.17;62.10;100984.44;1265586;23;646;-73
2022/11/20 02:34:02;;;;;;;;;;;;;;;13.14;61.96;100989.97;1265763;23;666;-73
2022/11/20 02:34:52;;;;;;;;;;;;;;;13.11;62.71;100987.50;1264681;23;631;-73
2022/11/20 02:35:42;;;;;;;;;;;;;;;13.13;62.48;100988.25;1265760;23;631;-71
2022/11/20 02:36:33;;;;;;;;;;;;;;;13.15;62.60;100990.84;1265569;23;748;-72
2022/11/20 02:37:23;;;;;;;;;;;;;;;13.11;62.68;100984.84;1267250;23;646;-72
2022/11/20 02:38:14;;;;;;;;;;;;;;;13.14;62.04;100973.06;1265566;23;639;-72
2022/11/20 02:39:04;;;;;;;;;;;;;;;13.16;62.16;100980.03;1265688;23;689;-73
2022/11/20 02:39:55;;;;;;;;;;;;;;;13.14;62.64;100989.97;1267195;23;748;-73
2022/11/20 02:40:45;;;;;;;;;;;;;;;13.18;62.24;100987.97;1265576;23;658;-72
2022/11/20 02:41:36;;;;;;;;;;;;;;;13.16;61.60;100988.06;1265780;23;646;-73
2022/11/20 02:42:26;;;;;;;;;;;;;;;13.15;62.04;100986.34;1265729;23;576;-72
2022/11/20 02:43:16;;;;;;;;;;;;;;;13.20;61.61;100988.72;1267297;23;657;-73
2022/11/20 02:44:07;;;;;;;;;;;;;;;13.17;62.37;100987.09;1265499;23;752;-72
2022/11/20 02:44:57;;;;;;;;;;;;;;;13.17;61.74;100984.44;1265635;23;552;-72
2022/11/20 02:45:48;;;;;;;;;;;;;;;13.16;61.75;100990.75;1265485;23;658;-72
2022/11/20 02:46:38;;;;;;;;;;;;;;;13.16;61.80;100987.22;1265744;23;649;-73
2022/11/20 02:47:29;;;;;;;;;;;;;;;13.17;62.17;100994.28;1265923;23;642;-73
2022/11/20 02:48:19;;;;;;;;;;;;;;;13.14;62.50;100983.75;1265583;23;586;-74
2022/11/20 02:49:09;;;;;;;;;;;;;;;13.13;62.31;100987.41;1265698;23;631;-74
2022/11/20 02:50:00;;;;;;;;;;;;;;;13.11;62.36;100989.34;1265216;23;646;-73
2022/11/20 02:50:50;;;;;;;;;;;;;;;13.12;62.13;100988.38;1265780;23;670;-73
2022/11/20 02:51:41;;;;;;;;;;;;;;;13.12;62.12;100983.88;1265324;23;646;-73
2022/11/20 02:52:31;;;;;;;;;;;;;;;13.13;61.97;100982.06;1265580;23;622;-73
2022/11/20 02:53:22;;;;;;;;;;;;;;;13.13;61.63;100982.06;1265312;23;731;-73
2022/11/20 02:54:12;;;;;;;;;;;;;;;13.13;62.27;100982.91;1265508;23;638;-73
2022/11/20 02:55:02;;;;;;;;;;;;;;;13.12;62.09;100981.19;1265735;23;571;-73
2022/11/20 02:55:53;;;;;;;;;;;;;;;13.13;61.91;100987.41;1265374;23;658;-73
2022/11/20 02:56:43;;;;;;;;;;;;;;;13.13;62.04;100979.38;1265601;23;697;-73
2022/11/20 02:57:34;;;;;;;;;;;;;;;13.10;61.73;100977.78;1265443;23;610;-73
2022/11/20 02:58:24;;;;;;;;;;;;;;;13.10;61.32;100979.59;1265584;23;626;-72
2022/11/20 02:59:15;;;;;;;;;;;;;;;13.08;62.11;100982.38;1265675;23;665;-73
2022/11/20 03:00:06;;;;;;;;;;;;;;;13.04;62.08;100982.75;1265535;23;619;-73
2022/11/20 03:00:56;;;;;;;;;;;;;;;13.10;61.91;100977.78;1260741;23;901;-73
2022/11/20 03:01:47;;;;;;;;;;;;;;;13.10;62.04;100984.94;1261713;23;638;-73
2022/11/20 03:02:37;;;;;;;;;;;;;;;13.11;61.59;100978.63;1260173;23;867;-73
2022/11/20 03:03:28;;;;;;;;;;;;;;;13.09;61.97;100973.38;1260843;23;618;-73
2022/11/20 03:04:18;;;;;;;;;;;;;;;13.12;62.00;100973.16;1267126;23;634;-73
2022/11/20 03:05:09;;;;;;;;;;;;;;;13.09;61.50;100977.88;1266473;23;677;-73
2022/11/20 03:05:59;;;;;;;;;;;;;;;13.11;61.94;100970.59;1265565;23;628;-73
2022/11/20 03:06:50;;;;;;;;;;;;;;;13.09;61.81;100969.84;1265763;23;603;-73
2022/11/20 03:07:40;;;;;;;;;;;;;;;13.11;61.50;100971.44;1265404;23;618;-73
2022/11/20 03:08:30;;;;;;;;;;;;;;;13.09;61.80;100964.50;1265806;23;626;-73
2022/11/20 03:09:21;;;;;;;;;;;;;;;13.09;61.70;100962.69;1267318;23;649;-73
2022/11/20 03:10:11;;;;;;;;;;;;;;;13.07;62.08;100956.63;1265650;23;641;-73
2022/11/20 03:11:02;;;;;;;;;;;;;;;13.06;62.29;100954.91;1267113;23;626;-72
2022/11/20 03:11:52;;;;;;;;;;;;;;;13.05;62.05;100960.38;1265554;23;669;-73
2022/11/20 03:12:43;;;;;;;;;;;;;;;13.08;61.41;100957.44;1265363;23;665;-73
2022/11/20 03:13:33;;;;;;;;;;;;;;;13.07;61.29;100956.63;1265662;23;614;-72
2022/11/20 03:14:24;;;;;;;;;;;;;;;13.09;61.14;100962.69;1265817;23;630;-72
2022/11/20 03:15:14;;;;;;;;;;;;;;;13.08;62.18;100960.13;1265467;23;597;-73
2022/11/20 03:16:04;;;;;;;;;;;;;;;13.08;61.91;100965.47;1265597;23;631;-72
2022/11/20 03:16:55;;;;;;;;;;;;;;;13.08;61.99;100958.31;1264832;23;732;-72
2022/11/20 03:17:45;;;;;;;;;;;;;;;13.04;61.46;100961.34;1267160;23;677;-73
2022/11/20 03:18:36;;;;;;;;;;;;;;;13.04;61.67;100956.84;1265368;23;736;-73
2022/11/20 03:19:26;;;;;;;;;;;;;;;13.02;62.14;100949.88;1265473;23;626;-73
2022/11/20 03:20:16;;;;;;;;;;;;;;;13.01;62.17;100940.16;1260865;23;666;-73
2022/11/20 03:21:07;;;;;;;;;;;;;;;13.00;62.11;100949.16;1261672;23;669;-73
2022/11/20 03:21:57;;;;;;;;;;;;;;;13.01;61.34;100943.69;1267318;23;677;-72
2022/11/20 03:22:48;;;;;;;;;;;;;;;12.99;61.62;100947.44;1265439;23;646;-73
2022/11/20 03:23:38;;;;;;;;;;;;;;;12.96;61.23;100950.31;1265500;23;622;-74
2022/11/20 03:24:29;;;;;;;;;;;;;;;13.01;61.57;100959.72;1265804;23;686;-73
2022/11/20 03:25:19;;;;;;;;;;;;;;;13.01;61.16;100950.84;1265472;23;682;-73
2022/11/20 03:26:10;;;;;;;;;;;;;;;13.03;61.38;100952.44;1265711;23;619;-75
2022/11/20 03:27:00;;;;;;;;;;;;;;;13.07;61.44;100955.75;1265440;23;681;-73
2022/11/20 03:27:50;;;;;;;;;;;;;;;13.06;60.99;100943.34;1265623;23;662;-74
2022/11/20 03:28:41;;;;;;;;;;;;;;;13.06;61.08;100951.38;1260676;23;1939;-73
2022/11/20 03:29:32;;;;;;;;;;;;;;;13.00;61.92;100950.00;1261602;23;528;-73
2022/11/20 03:30:22;;;;;;;;;;;;;;;12.95;62.03;100946.78;1267163;23;645;-73
2022/11/20 03:31:13;;;;;;;;;;;;;;;12.98;61.30;100948.41;1265717;23;634;-73
2022/11/20 03:32:03;;;;;;;;;;;;;;;12.96;61.67;100947.66;1267079;23;645;-73
2022/11/20 03:32:54;;;;;;;;;;;;;;;13.01;61.88;100945.50;1265614;23;654;-72
2022/11/20 03:33:44;;;;;;;;;;;;;;;13.02;61.13;100940.03;1264625;23;595;-72
2022/11/20 03:34:35;;;;;;;;;;;;;;;12.99;61.74;100945.63;1260663;23;650;-72
2022/11/20 03:35:25;;;;;;;;;;;;;;;12.98;61.40;100943.03;1257471;23;629;-73
2022/11/20 03:36:16;;;;;;;;;;;;;;;12.95;61.24;100938.78;1259749;23;661;-73
2022/11/20 03:37:06;;;;;;;;;;;;;;;12.99;61.78;100942.09;1267041;23;618;-73
2022/11/20 03:37:57;;;;;;;;;;;;;;;12.95;61.58;100941.44;1260766;23;805;-72
2022/11/20 03:38:47;;;;;;;;;;;;;;;12.98;61.89;100945.72;1261567;23;618;-72
2022/11/20 03:39:37;;;;;;;;;;;;;;;12.93;61.18;100948.72;1267324;23;626;-72
2022/11/20 03:40:28;;;;;;;;;;;;;;;12.95;61.30;100945.94;1265395;23;638;-72
2022/11/20 03:41:18;;;;;;;;;;;;;;;12.95;61.43;100952.16;1265600;23;615;-72
2022/11/20 03:42:44;;;;;;;;;;;;;;;12.99;61.60;100958.13;1265287;23;799;-72
2022/11/20 03:43:19;;;;;;;;;;;;;;;12.99;61.16;100955.47;1267293;23;673;-72
2022/11/20 03:44:10;;;;;;;;;;;;;;;12.95;61.82;100951.28;1265707;23;639;-72
2022/11/20 03:45:00;;;;;;;;;;;;;;;12.95;61.50;100946.78;1265383;23;642;-72
2022/11/20 03:45:50;;;;;;;;;;;;;;;12.96;61.54;100943.16;1265149;23;666;-71
2022/11/20 03:46:41;;;;;;;;;;;;;;;12.92;61.36;100948.84;1260771;23;674;-71
2022/11/20 03:47:31;;;;;;;;;;;;;;;13.00;60.64;100941.97;1262487;23;676;-73
2022/11/20 03:48:22;;;;;;;;;;;;;;;12.98;60.89;100945.72;1265703;23;666;-72
2022/11/20 03:49:12;;;;;;;;;;;;;;;12.93;61.71;100934.50;1267186;23;555;-72
2022/11/20 03:50:02;;;;;;;;;;;;;;;12.93;61.58;100937.16;1265568;23;681;-73
2022/11/20 03:50:53;;;;;;;;;;;;;;;12.91;60.93;100937.28;1265348;23;611;-73
2022/11/20 03:51:43;;;;;;;;;;;;;;;12.91;60.69;100929.25;1265612;23;623;-73
2022/11/20 03:52:34;;;;;;;;;;;;;;;12.92;61.16;100928.28;1265258;23;650;-73
2022/11/20 03:53:24;;;;;;;;;;;;;;;12.95;61.16;100925.41;1260752;23;649;-73
2022/11/20 03:54:15;;;;;;;;;;;;;;;12.93;61.31;100940.69;1262345;23;691;-73
2022/11/20 03:55:05;;;;;;;;;;;;;;;12.91;61.08;100942.63;1267277;23;625;-73
2022/11/20 03:55:56;;;;;;;;;;;;;;;12.90;60.70;100932.06;1265561;23;612;-73
2022/11/20 03:56:46;;;;;;;;;;;;;;;12.90;61.13;100940.09;1267116;23;661;-73
2022/11/20 03:57:36;;;;;;;;;;;;;;;12.90;60.85;100937.44;1265515;23;661;-72
2022/11/20 03:58:27;;;;;;;;;;;;;;;12.92;60.39;100935.47;1267276;23;720;-73
2022/11/20 03:59:17;;;;;;;;;;;;;;;12.91;60.61;100931.94;1265585;23;625;-72
2022/11/20 04:00:08;;;;;;;;;;;;;;;12.96;61.18;100939.63;1265580;23;686;-72
2022/11/20 04:00:58;;;;;;;;;;;;;;;12.91;61.13;100933.75;1267160;23;654;-71
2022/11/20 04:01:48;;;;;;;;;;;;;;;12.95;61.27;100933.44;1265498;23;662;-72
2022/11/20 04:02:39;;;;;;;;;;;;;;;12.95;60.27;100935.25;1265299;23;721;-72
2022/11/20 04:03:29;;;;;;;;;;;;;;;12.93;60.90;100935.34;1265605;23;634;-72
2022/11/20 04:04:20;;;;;;;;;;;;;;;12.95;60.61;100932.56;1265672;23;644;-73
2022/11/20 04:05:10;;;;;;;;;;;;;;;12.94;61.10;100934.38;1265421;23;615;-72
2022/11/20 04:06:01;;;;;;;;;;;;;;;12.94;60.65;100928.19;1265487;23;599;-74
2022/11/20 04:06:51;;;;;;;;;;;;;;;12.91;61.12;100925.72;1265441;23;594;-72
2022/11/20 04:07:42;;;;;;;;;;;;;;;12.85;60.46;100924.38;1265595;23;634;-72
2022/11/20 04:08:32;;;;;;;;;;;;;;;12.88;60.43;100917.97;1265259;23;682;-72
2022/11/20 04:09:22;;;;;;;;;;;;;;;12.85;60.75;100921.72;1265544;23;654;-73
2022/11/20 04:10:13;;;;;;;;;;;;;;;12.89;61.09;100919.66;1267069;23;587;-74
2022/11/20 04:11:03;;;;;;;;;;;;;;;12.87;61.10;100917.09;1265461;23;674;-73
2022/11/20 04:11:54;;;;;;;;;;;;;;;12.91;61.39;100921.22;1267139;23;626;-73
2022/11/20 04:12:44;;;;;;;;;;;;;;;12.88;60.85;100917.97;1265374;23;614;-74
2022/11/20 04:13:34;;;;;;;;;;;;;;;12.88;61.48;100917.97;1265595;23;673;-74
2022/11/20 04:14:25;;;;;;;;;;;;;;;12.83;61.22;100911.13;1266148;23;704;-74
2022/11/20 04:15:15;;;;;;;;;;;;;;;12.83;61.39;100912.94;1265366;23;638;-74
2022/11/20 04:16:06;;;;;;;;;;;;;;;12.84;61.53;100910.16;1267280;23;618;-73
2022/11/20 04:16:56;;;;;;;;;;;;;;;12.91;61.71;100907.00;1265372;23;642;-75
2022/11/20 04:17:47;;;;;;;;;;;;;;;12.88;61.18;100910.78;1265644;23;666;-74
2022/11/20 04:18:37;;;;;;;;;;;;;;;12.85;61.89;100909.19;1267093;23;598;-73
2022/11/20 04:19:27;;;;;;;;;;;;;;;12.89;60.92;100911.66;1265548;23;689;-73
2022/11/20 04:20:18;;;;;;;;;;;;;;;12.88;61.32;100909.94;1265261;23;541;-73
2022/11/20 04:21:08;;;;;;;;;;;;;;;12.84;61.68;100906.63;1265458;23;614;-73
2022/11/20 04:21:59;;;;;;;;;;;;;;;12.81;61.91;100902.34;1265518;23;638;-73
2022/11/20 04:22:49;;;;;;;;;;;;;;;12.81;61.91;100902.34;1260626;23;624;-73
2022/11/20 04:23:40;;;;;;;;;;;;;;;12.82;61.15;100904.06;1262357;23;665;-72
2022/11/20 04:24:30;;;;;;;;;;;;;;;12.81;61.60;100896.16;1267145;23;645;-74
2022/11/20 04:25:20;;;;;;;;;;;;;;;12.82;61.00;100909.41;1265508;23;627;-73
2022/11/20 04:26:11;;;;;;;;;;;;;;;12.82;61.48;100903.22;1260579;23;697;-72
2022/11/20 04:27:01;;;;;;;;;;;;;;;12.83;61.52;100897.75;1257176;23;646;-72
2022/11/20 04:27:52;;;;;;;;;;;;;;;12.85;61.58;100901.16;1262257;23;637;-72
2022/11/20 04:28:42;;;;;;;;;;;;;;;12.81;61.02;100897.00;1266915;23;1889;-73
2022/11/20 04:29:32;;;;;;;;;;;;;;;12.83;60.87;100902.25;1260321;23;645;-72
2022/11/20 04:30:23;;;;;;;;;;;;;;;12.79;61.55;100903.41;1261703;23;629;-72
2022/11/20 04:31:13;;;;;;;;;;;;;;;12.80;61.35;100897.09;1267093;23;612;-72